Flight Track Log - Related Links

Times and Time Zones

All times are in EDT time to prevent confusion due to time zone crossing. See the EJA922 flight status page for this flight to view local times or setup timezone preferences in your user account.


Time Position Orientation Groundspeed Altitude Reporting Facility
EDT Latitude Longitude Course Direction KTS MPH feet Rate Location/Type
Tue 11:24:55 PM 41.1000 -73.7833 274° West 199 229 3,300  Level New York TRACON
Tue 11:26:52 PM 41.0667 -73.9525 255° West 253 291 9,100 2,847 Climbing New York Center
Tue 11:27:52 PM 41.0453 -74.0450 253° West 264 304 11,700 2,400 Climbing New York Center
Tue 11:28:52 PM 41.0172 -74.1619 252° West 293 337 13,900 2,100 Climbing New York Center
Tue 11:29:52 PM 40.9886 -74.2814 252° West 327 376 15,900 1,600 Climbing New York Center
Tue 11:30:00 PM 41.1075 -74.5947 274° West  Level Estimated
Tue 11:30:52 PM 40.9622 -74.3928 253° West 348 400 17,100  Level New York Center
Tue 11:31:52 PM 40.9264 -74.5392 252° West 369 425 17,000 -50 Descending New York Center
Tue 11:32:52 PM 40.8956 -74.6581 251° West 381 438 17,000  Level New York Center
Tue 11:33:52 PM 40.8592 -74.8097 252° West 388 447 17,000 550 Level New York Center
Tue 11:34:52 PM 40.8256 -74.9419 251° West 388 447 18,100 1,500 Climbing New York Center
Tue 11:35:52 PM 40.8206 -75.0761 267° West 380 437 20,000 1,900 Climbing New York Center
Tue 11:36:52 PM 40.8239 -75.2161 272° West 375 432 21,900 1,950 Climbing New York Center
Tue 11:37:52 PM 40.8228 -75.3478 269° West 370 426 23,900 2,200 Climbing New York Center
Tue 11:38:52 PM 40.8261 -75.4769 272° West 365 420 26,300 1,950 Climbing New York Center
Tue 11:39:52 PM 40.8292 -75.6061 272° West 365 420 27,800 1,450 Climbing New York Center
Tue 11:40:52 PM 40.8322 -75.7378 272° West 365 420 29,200 1,350 Climbing New York Center
Tue 11:41:52 PM 40.8331 -75.8642 271° West 365 420 30,500 1,000 Climbing New York Center
Tue 11:42:52 PM 40.8336 -75.9958 270° West 365 420 31,200 850 Climbing New York Center
Tue 11:43:52 PM 40.8381 -76.1250 273° West 365 420 32,200 900 Climbing New York Center
Tue 11:44:52 PM 40.8375 -76.2292 270° West 365 420 33,000 800 Climbing New York Center
Tue 11:45:52 PM 40.8392 -76.3747 271° West 365 420 33,800 900 Climbing New York Center
Tue 11:46:52 PM 40.8411 -76.5094 271° West 365 420 34,800 1,050 Climbing New York Center
Tue 11:47:52 PM 40.8431 -76.6386 271° West 365 420 35,900 1,000 Climbing New York Center
Tue 11:48:52 PM 40.8447 -76.7703 271° West 365 420 36,800 800 Climbing New York Center
Tue 11:49:52 PM 40.8442 -76.9047 270° West 365 420 37,500 600 Climbing New York Center
Tue 11:50:52 PM 40.8475 -77.0367 272° West 365 420 38,000 250 Climbing New York Center
Tue 11:51:52 PM 40.8483 -77.1769 270° West 370 426 38,000  Level New York Center
Tue 11:52:52 PM 40.8486 -77.3250 270° West 385 443 38,000 289 Level New York Center
Tue 11:54:59 PM 40.8511 -77.6533 271° West 400 460 38,900 513 Climbing Cleveland Center
Tue 11:55:59 PM 40.8514 -77.7992 270° West 396 456 39,600 694 Climbing Cleveland Center
Tue 11:57:00 PM 40.8511 -77.9439 270° West 392 451 40,300 694 Climbing Cleveland Center
Tue 11:58:00 PM 40.8511 -78.0858 270° West 388 447 41,000 694 Climbing Cleveland Center
Tue 11:59:01 PM 40.8506 -78.2267 270° West 386 444 41,700 694 Climbing Cleveland Center
Wed 12:00:01 AM 40.8506 -78.3711 270° West 380 437 42,400 650 Climbing Cleveland Center
Wed 12:01:01 AM 40.8497 -78.5061 270° West 370 426 43,000 298 Climbing Cleveland Center
Wed 12:02:02 AM 40.8514 -78.6483 271° West 384 442 43,000  Level Cleveland Center
Wed 12:03:02 AM 40.8464 -78.7831 267° West 374 430 43,000  Level Cleveland Center
Wed 12:04:02 AM 40.8450 -78.9281 269° West 391 450 43,000  Level Cleveland Center
Wed 12:05:03 AM 40.8419 -79.0792 269° West 413 475 43,000  Level Cleveland Center
Wed 12:06:03 AM 40.8403 -79.2272 269° West 408 470 43,000  Level Cleveland Center
Wed 12:07:03 AM 40.8397 -79.3753 270° West 406 467 43,000  Level Cleveland Center
Wed 12:08:04 AM 40.8372 -79.5278 269° West 412 474 43,000  Level Cleveland Center
Wed 12:09:04 AM 40.8344 -79.6742 269° West 409 471 43,000  Level Cleveland Center
Wed 12:10:04 AM 40.8314 -79.8239 269° West 413 475 43,000  Level Cleveland Center
Wed 12:11:05 AM 40.8289 -79.9731 269° West 412 474 43,000  Level Cleveland Center
Wed 12:12:05 AM 40.8267 -80.1283 269° West 417 480 43,000  Level Cleveland Center
Wed 12:13:05 AM 40.8236 -80.2814 269° West 420 483 43,000  Level Cleveland Center
Wed 12:14:06 AM 40.8203 -80.4303 268° West 422 486 43,000  Level Cleveland Center
Wed 12:15:06 AM 40.8167 -80.5844 268° West 419 482 43,000  Level Cleveland Center
Wed 12:16:06 AM 40.8136 -80.7336 268° West 420 483 43,000  Level Cleveland Center
Wed 12:17:06 AM 40.8097 -80.8878 268° West 424 488 43,000  Level Cleveland Center
Wed 12:18:07 AM 40.8056 -81.0514 268° West 420 483 43,000  Level Cleveland Center
Wed 12:19:07 AM 40.8006 -81.2097 268° West 424 488 43,000  Level Cleveland Center
Wed 12:20:07 AM 40.7958 -81.3656 268° West 420 483 43,000  Level Cleveland Center
Wed 12:21:07 AM 40.7900 -81.5219 267° West 422 486 43,000  Level Cleveland Center
Wed 12:22:08 AM 40.7850 -81.6772 268° West 420 483 43,000  Level Cleveland Center
Wed 12:23:08 AM 40.7797 -81.8331 267° West 419 482 43,000  Level Cleveland Center
Wed 12:24:08 AM 40.7742 -81.9900 267° West 422 486 43,000  Level Cleveland Center
Wed 12:25:09 AM 40.7686 -82.1456 267° West 421 484 43,000  Level Cleveland Center
Wed 12:25:56 AM 40.7647 -82.2522 267° West 421 484 43,000  Level Indianapolis Center
Wed 12:26:56 AM 40.7583 -82.4089 267° West 423 487 43,000  Level Indianapolis Center
Wed 12:27:57 AM 40.7519 -82.5658 267° West 424 488 43,000  Level Indianapolis Center
Wed 12:28:57 AM 40.7464 -82.7242 267° West 428 493 43,000  Level Indianapolis Center
Wed 12:29:58 AM 40.7386 -82.8808 266° West 426 490 43,000  Level Indianapolis Center
Wed 12:30:59 AM 40.7325 -83.0389 267° West 427 491 43,000  Level Indianapolis Center
Wed 12:31:59 AM 40.7239 -83.2128 266° West 426 490 43,000  Level Indianapolis Center
Wed 12:33:00 AM 40.7164 -83.3672 266° West 425 489 43,000  Level Indianapolis Center
Wed 12:35:11 AM 40.7000 -83.7069 266° West 425 489 43,000  Level Cleveland Center
Wed 12:36:11 AM 40.6919 -83.8608 266° West 424 488 43,000  Level Cleveland Center
Wed 12:36:50 AM 40.6875 -83.9556 266° West 427 491 43,000  Level Indianapolis Center
Wed 12:37:50 AM 40.6819 -84.1111 267° West 428 493 43,000  Level Indianapolis Center
Wed 12:38:51 AM 40.6775 -84.2661 268° West 427 491 43,000  Level Indianapolis Center
Wed 12:39:51 AM 40.6722 -84.4208 267° West 426 490 43,000  Level Indianapolis Center
Wed 12:40:52 AM 40.6656 -84.5764 267° West 426 490 43,000  Level Indianapolis Center
Wed 12:41:31 AM 40.6633 -84.6844 268° West 424 488 43,000  Level Chicago Center
Wed 12:42:31 AM 40.6567 -84.8419 267° West 427 491 43,000  Level Chicago Center
Wed 12:43:31 AM 40.6500 -84.9936 267° West 425 489 43,000  Level Chicago Center
Wed 12:44:32 AM 40.6431 -85.1492 267° West 427 491 43,000  Level Chicago Center
Wed 12:45:32 AM 40.6361 -85.3047 267° West 429 494 43,000  Level Chicago Center
Wed 12:46:32 AM 40.6294 -85.4589 267° West 427 491 43,000  Level Chicago Center
Wed 12:47:32 AM 40.6233 -85.6156 267° West 431 496 43,000  Level Chicago Center
Wed 12:48:32 AM 40.6156 -85.7703 266° West 430 495 43,000  Level Chicago Center
Wed 12:49:33 AM 40.6078 -85.9258 266° West 429 494 43,000  Level Chicago Center
Wed 12:50:33 AM 40.6006 -86.0819 267° West 430 495 43,000  Level Chicago Center
Wed 12:51:33 AM 40.5931 -86.2364 266° West 429 494 43,000  Level Chicago Center
Wed 12:52:33 AM 40.5839 -86.3903 266° West 427 491 43,000  Level Chicago Center
Wed 12:53:33 AM 40.5761 -86.5442 266° West 426 490 43,000  Level Chicago Center
Wed 12:54:33 AM 40.5678 -86.7000 266° West 429 494 43,000  Level Chicago Center
Wed 12:55:34 AM 40.5586 -86.8544 266° West 428 493 43,000  Level Chicago Center
Wed 12:56:34 AM 40.5494 -87.0075 266° West 427 491 43,000  Level Chicago Center
Wed 12:57:34 AM 40.5400 -87.1697 266° West 429 494 43,000  Level Chicago Center
Wed 12:58:34 AM 40.5303 -87.3242 265° West 427 491 43,000  Level Chicago Center
Wed 12:59:37 AM 40.5192 -87.5103 266° West 426 490 43,000  Level Chicago Center
Wed 01:00:37 AM 40.5106 -87.6658 266° West 427 491 43,000  Level Chicago Center
Wed 01:01:37 AM 40.4997 -87.8217 265° West 428 493 43,000  Level Chicago Center
Wed 01:02:38 AM 40.4892 -87.9786 265° West 430 495 43,000  Level Chicago Center
Wed 01:03:38 AM 40.4792 -88.1336 265° West 429 494 43,000  Level Chicago Center
Wed 01:04:38 AM 40.4689 -88.2894 265° West 428 493 43,000  Level Chicago Center
Wed 01:05:38 AM 40.4567 -88.4467 264° West 432 497 43,000  Level Chicago Center
Wed 01:06:38 AM 40.4472 -88.5856 265° West 432 497 43,000  Level Chicago Center
Wed 01:07:38 AM 40.4367 -88.7428 265° West 431 496 43,000  Level Chicago Center
Wed 01:08:38 AM 40.4244 -88.8997 264° West 432 497 43,000  Level Chicago Center
Wed 01:09:39 AM 40.4119 -89.0603 264° West 437 503 43,000  Level Chicago Center
Wed 01:10:39 AM 40.3997 -89.2206 264° West 441 507 43,000  Level Chicago Center
Wed 01:11:39 AM 40.3861 -89.3822 264° West 442 509 43,000  Level Chicago Center
Wed 01:12:39 AM 40.3731 -89.5444 264° West 445 512 43,000  Level Chicago Center
Wed 01:13:27 AM 40.3617 -89.6767 264° West 445 512 43,000  Level Kansas City Center
Wed 01:14:27 AM 40.3481 -89.8403 264° West 446 513 43,000  Level Kansas City Center
Wed 01:15:28 AM 40.3350 -90.0028 264° West 446 513 43,000  Level Kansas City Center
Wed 01:16:28 AM 40.3206 -90.1667 263° West 447 514 43,000  Level Kansas City Center
Wed 01:17:28 AM 40.3058 -90.3306 263° West 450 518 43,000  Level Kansas City Center
Wed 01:18:29 AM 40.2914 -90.4939 263° West 449 517 43,000  Level Kansas City Center
Wed 01:19:29 AM 40.2769 -90.6581 263° West 452 520 43,000  Level Kansas City Center
Wed 01:20:29 AM 40.2617 -90.8211 263° West 452 520 43,000  Level Kansas City Center
Wed 01:21:29 AM 40.2481 -90.9661 263° West 454 522 43,000  Level Kansas City Center
Wed 01:22:30 AM 40.2297 -91.1628 263° West 456 525 43,000  Level Kansas City Center
Wed 01:23:30 AM 40.2139 -91.3261 263° West 456 525 43,000  Level Kansas City Center
Wed 01:24:30 AM 40.1969 -91.4892 262° West 456 525 43,000  Level Kansas City Center
Wed 01:25:30 AM 40.1803 -91.6528 262° West 457 526 43,000  Level Kansas City Center
Wed 01:26:31 AM 40.1647 -91.8169 263° West 457 526 43,000  Level Kansas City Center
Wed 01:27:31 AM 40.1481 -91.9789 262° West 455 524 43,000  Level Kansas City Center
Wed 01:28:31 AM 40.1317 -92.1408 263° West 452 520 43,000  Level Kansas City Center
Wed 01:29:31 AM 40.1147 -92.3022 262° West 449 517 43,000  Level Kansas City Center
Wed 01:30:32 AM 40.0983 -92.4511 262° West 447 514 43,000  Level Kansas City Center
Wed 01:31:32 AM 40.0789 -92.6331 262° West 452 520 43,000  Level Kansas City Center
Wed 01:32:32 AM 40.0619 -92.7919 262° West 449 517 43,000  Level Kansas City Center
Wed 01:33:32 AM 40.0439 -92.9536 262° West 449 517 43,000  Level Kansas City Center
Wed 01:34:32 AM 40.0261 -93.1133 262° West 448 516 43,000  Level Kansas City Center
Wed 01:35:33 AM 40.0094 -93.2750 262° West 451 519 43,000  Level Kansas City Center
Wed 01:36:33 AM 39.9906 -93.4344 261° West 448 516 43,000  Level Kansas City Center
Wed 01:37:33 AM 39.9708 -93.5936 261° West 448 516 43,000  Level Kansas City Center
Wed 01:38:33 AM 39.9519 -93.7522 261° West 448 516 43,000  Level Kansas City Center
Wed 01:39:34 AM 39.9333 -93.9133 261° West 451 519 43,000  Level Kansas City Center
Wed 01:40:34 AM 39.9142 -94.0711 261° West 445 512 43,000  Level Kansas City Center
Wed 01:41:34 AM 39.8956 -94.2178 261° West 442 509 43,000  Level Kansas City Center
Wed 01:42:34 AM 39.8747 -94.3961 261° West 447 514 43,000  Level Kansas City Center
Wed 01:43:34 AM 39.8556 -94.5489 261° West 448 516 43,000  Level Kansas City Center
Wed 01:44:34 AM 39.8361 -94.7011 261° West 448 516 43,000  Level Kansas City Center
Wed 01:45:35 AM 39.8136 -94.8786 261° West 447 514 43,000  Level Kansas City Center
Wed 01:46:35 AM 39.7942 -95.0306 261° West 448 516 43,000  Level Kansas City Center
Wed 01:47:35 AM 39.7747 -95.1825 261° West 447 514 43,000  Level Kansas City Center
Wed 01:48:35 AM 39.7547 -95.3347 260° West 449 517 43,000  Level Kansas City Center
Wed 01:49:35 AM 39.7308 -95.5119 260° West 449 517 43,000  Level Kansas City Center
Wed 01:50:36 AM 39.7111 -95.6625 260° West 446 513 43,000  Level Kansas City Center
Wed 01:51:36 AM 39.6897 -95.8153 260° West 450 518 43,000  Level Kansas City Center
Wed 01:52:36 AM 39.6650 -95.9928 260° West 451 519 43,000  Level Kansas City Center
Wed 01:53:36 AM 39.6447 -96.1444 260° West 448 516 43,000  Level Kansas City Center
Wed 01:54:36 AM 39.6228 -96.2953 259° West 446 513 43,000  Level Kansas City Center
Wed 01:55:36 AM 39.5978 -96.4722 260° West 449 517 43,000  Level Kansas City Center
Wed 01:56:36 AM 39.5769 -96.6236 260° West 447 514 43,000  Level Kansas City Center
Wed 01:57:36 AM 39.5539 -96.7758 259° West 449 517 43,000  Level Kansas City Center
Wed 01:58:37 AM 39.5275 -96.9439 259° West 449 517 43,000  Level Kansas City Center
Wed 01:59:37 AM 39.5047 -97.1044 260° West 448 516 43,000  Level Kansas City Center
Wed 02:00:37 AM 39.4822 -97.2575 259° West 451 519 43,000  Level Kansas City Center
Wed 02:01:37 AM 39.4597 -97.4089 259° West 449 517 43,000  Level Kansas City Center
Wed 02:02:37 AM 39.4331 -97.5853 259° West 454 522 43,000  Level Kansas City Center
Wed 02:03:38 AM 39.4089 -97.7450 259° West 453 521 43,000  Level Kansas City Center
Wed 02:04:38 AM 39.3858 -97.8914 259° West 452 520 43,000  Level Kansas City Center
Wed 02:05:38 AM 39.3617 -98.0422 258° West 448 516 43,000  Level Kansas City Center
Wed 02:06:38 AM 39.3336 -98.2239 259° West 456 525 43,000  Level Kansas City Center
Wed 02:07:38 AM 39.3081 -98.3872 259° West 460 529 43,000  Level Kansas City Center
Wed 02:08:38 AM 39.2814 -98.5503 258° West 464 534 43,000  Level Kansas City Center
Wed 02:09:39 AM 39.2597 -98.6869 258° West 458 527 43,000  Level Kansas City Center
Wed 02:10:39 AM 39.2286 -98.8692 258° West 464 534 43,000  Level Kansas City Center
Wed 02:11:39 AM 39.2014 -99.0261 257° West 472 543 43,000  Level Kansas City Center
Wed 02:12:39 AM 39.1756 -99.1881 258° West 465 535 43,000  Level Kansas City Center
Wed 02:13:39 AM 39.1464 -99.3536 257° West 473 544 43,000  Level Kansas City Center
Wed 02:14:39 AM 39.1186 -99.5147 258° West 466 536 43,000  Level Kansas City Center
Wed 02:15:40 AM 39.0892 -99.6883 258° West 466 536 43,000  Level Kansas City Center
Wed 02:16:40 AM 39.0619 -99.8447 257° West 468 539 43,000  Level Kansas City Center
Wed 02:17:40 AM 39.0342 -100.0006 257° West 467 537 43,000  Level Kansas City Center
Wed 02:18:40 AM 39.0025 -100.1819 257° West 467 537 43,000  Level Kansas City Center
Wed 02:19:40 AM 38.9736 -100.3394 257° West 471 542 43,000  Level Kansas City Center
Wed 02:20:41 AM 38.9461 -100.4947 257° West 470 541 43,000  Level Kansas City Center
Wed 02:21:41 AM 38.9125 -100.6783 257° West 473 544 43,000  Level Kansas City Center
Wed 02:22:41 AM 38.8842 -100.8342 257° West 470 541 43,000  Level Kansas City Center
Wed 02:23:41 AM 38.8550 -100.9903 257° West 471 542 43,000  Level Kansas City Center
Wed 02:24:41 AM 38.8253 -101.1464 256° West 472 543 43,000  Level Kansas City Center
Wed 02:25:53 AM 38.7883 -101.3536 257° West 474 545 43,000  Level Denver Center
Wed 02:26:53 AM 38.7594 -101.5094 257° West 471 542 43,000  Level Denver Center
Wed 02:27:53 AM 38.7289 -101.6647 256° West 471 542 43,000  Level Denver Center
Wed 02:28:54 AM 38.6944 -101.8458 256° West 472 543 43,000  Level Denver Center
Wed 02:29:54 AM 38.6631 -102.0017 256° West 472 543 43,000  Level Denver Center
Wed 02:30:54 AM 38.6339 -102.1575 257° West 473 544 43,000  Level Denver Center
Wed 02:31:55 AM 38.5964 -102.3400 255° West 475 547 43,000  Level Denver Center
Wed 02:32:55 AM 38.5664 -102.4961 256° West 475 547 43,000  Level Denver Center
Wed 02:33:56 AM 38.5347 -102.6525 256° West 475 547 43,000  Level Denver Center
Wed 02:34:56 AM 38.4978 -102.8339 255° West 475 547 43,000  Level Denver Center
Wed 02:35:56 AM 38.4664 -102.9900 256° West 474 545 43,000  Level Denver Center
Wed 02:36:57 AM 38.4344 -103.1458 255° West 475 547 43,000  Level Denver Center
Wed 02:37:57 AM 38.3975 -103.3286 256° West 478 550 43,000  Level Denver Center
Wed 02:38:57 AM 38.3636 -103.4847 255° West 477 549 43,000  Level Denver Center
Wed 02:39:58 AM 38.3317 -103.6411 255° West 478 550 43,000  Level Denver Center
Wed 02:40:58 AM 38.2989 -103.7964 255° West 477 549 43,000  Level Denver Center
Wed 02:41:58 AM 38.2608 -103.9783 255° West 478 550 43,000  Level Denver Center
Wed 02:42:59 AM 38.2272 -104.1325 255° West 476 548 43,000  Level Denver Center
Wed 02:43:59 AM 38.1939 -104.2858 255° West 474 545 43,000  Level Denver Center
Wed 02:44:59 AM 38.1544 -104.4672 255° West 478 550 43,000  Level Denver Center
Wed 02:46:00 AM 38.1208 -104.6233 255° West 480 552 43,000  Level Denver Center
Wed 02:47:00 AM 38.0858 -104.7794 254° West 482 555 43,000  Level Denver Center
Wed 02:48:00 AM 38.0461 -104.9594 254° West 476 548 43,000  Level Denver Center
Wed 02:49:01 AM 38.0119 -105.1144 254° West 477 549 43,000  Level Denver Center
Wed 02:50:01 AM 37.9756 -105.2700 254° West 481 554 43,000  Level Denver Center
Wed 02:51:01 AM 37.9350 -105.4508 254° West 479 551 43,000  Level Denver Center
Wed 02:52:02 AM 37.9000 -105.6056 254° West 480 552 43,000  Level Denver Center
Wed 02:53:02 AM 37.8636 -105.7597 253° West 479 551 43,000  Level Denver Center
Wed 02:54:02 AM 37.8281 -105.9150 254° West 480 552 43,000  Level Denver Center
Wed 02:55:03 AM 37.7847 -106.0964 253° West 483 556 43,000  Level Denver Center
Wed 02:56:03 AM 37.7486 -106.2478 253° West 481 554 43,000  Level Denver Center
Wed 02:57:03 AM 37.7061 -106.4278 253° West 481 554 43,000  Level Denver Center
Wed 02:58:04 AM 37.6697 -106.5833 254° West 482 555 43,000  Level Denver Center
Wed 02:59:04 AM 37.6319 -106.7372 253° West 481 554 43,000  Level Denver Center
Wed 03:00:04 AM 37.5944 -106.8903 253° West 479 551 43,000  Level Denver Center
Wed 03:01:05 AM 37.5517 -107.0703 253° West 480 552 43,000  Level Denver Center
Wed 03:02:05 AM 37.5128 -107.2236 252° West 480 552 43,000  Level Denver Center
Wed 03:03:05 AM 37.4750 -107.3792 253° West 484 557 43,000  Level Denver Center
Wed 03:04:06 AM 37.4300 -107.5581 252° West 481 554 43,000  Level Denver Center
Wed 03:05:06 AM 37.3917 -107.7139 253° West 484 557 43,000  Level Denver Center
Wed 03:06:06 AM 37.3525 -107.8681 252° West 485 558 43,000  Level Denver Center
Wed 03:07:07 AM 37.3139 -108.0208 252° West 481 554 43,000  Level Denver Center
Wed 03:08:07 AM 37.2683 -108.2000 252° West 483 556 43,000  Level Denver Center
Wed 03:09:08 AM 37.2294 -108.3522 252° West 482 555 43,000  Level Denver Center
Wed 03:10:08 AM 37.1903 -108.5050 252° West 482 555 43,000  Level Denver Center
Wed 03:11:08 AM 37.1433 -108.6828 252° West 483 556 43,000  Level Denver Center
Wed 03:12:09 AM 37.1028 -108.8367 252° West 485 558 43,000  Level Denver Center
Wed 03:13:09 AM 37.0622 -108.9908 252° West 488 562 43,000  Level Denver Center
Wed 03:14:09 AM 37.0144 -109.1708 252° West 488 562 43,000  Level Denver Center
Wed 03:15:10 AM 36.9739 -109.3253 252° West 489 563 43,000  Level Denver Center
Wed 03:16:10 AM 36.9328 -109.4794 252° West 490 564 43,000  Level Denver Center
Wed 03:17:11 AM 36.8844 -109.6575 251° West 488 562 43,000  Level Denver Center
Wed 03:18:11 AM 36.8419 -109.8108 251° West 489 563 43,000  Level Denver Center
Wed 03:19:11 AM 36.8008 -109.9631 251° West 485 558 43,000  Level Denver Center
Wed 03:20:12 AM 36.7517 -110.1403 251° West 485 558 43,000  Level Denver Center
Wed 03:21:12 AM 36.7144 -110.2747 251° West 483 556 43,000  Level Denver Center
Wed 03:22:13 AM 36.6700 -110.4328 251° West 485 558 43,000  Level Denver Center
Wed 03:23:13 AM 36.6267 -110.5908 251° West 483 556 43,000  Level Denver Center
Wed 03:24:13 AM 36.5814 -110.7494 250° West 485 558 43,000  Level Denver Center
Wed 03:25:14 AM 36.5372 -110.9075 251° West 485 558 43,000  Level Denver Center
Wed 03:26:14 AM 36.4922 -111.0647 250° West 483 556 43,000  Level Denver Center
Wed 03:27:14 AM 36.4464 -111.2222 250° West 484 557 43,000  Level Denver Center
Wed 03:28:15 AM 36.4019 -111.3803 251° West 485 558 43,000  Level Denver Center
Wed 03:29:15 AM 36.3550 -111.5375 250° West 485 558 43,000  Level Denver Center
Wed 03:30:07 AM 36.3117 -111.6914 251° West 479 551 43,000  Level Los Angeles Center
Wed 03:31:08 AM 36.2656 -111.8478 250° West 481 554 43,000  Level Los Angeles Center
Wed 03:32:08 AM 36.2200 -112.0028 250° West 480 552 43,000  Level Los Angeles Center
Wed 03:33:08 AM 36.1739 -112.1556 250° West 488 562 43,000  Level Los Angeles Center
Wed 03:34:09 AM 36.1264 -112.3167 250° West 483 556 43,000  Level Los Angeles Center
Wed 03:35:09 AM 36.0803 -112.4703 250° West 478 550 43,000  Level Los Angeles Center
Wed 03:36:09 AM 36.0336 -112.6253 250° West 481 554 43,000  Level Los Angeles Center
Wed 03:37:09 AM 35.9878 -112.7792 250° West 478 550 43,000  Level Los Angeles Center
Wed 03:38:10 AM 35.9453 -112.9172 249° West 474 545 43,000  Level Los Angeles Center
Wed 03:39:10 AM 35.8994 -113.0672 249° West 474 545 43,000  Level Los Angeles Center
Wed 03:40:10 AM 35.8533 -113.2181 249° West 476 548 43,000  Level Los Angeles Center
Wed 03:41:11 AM 35.8064 -113.3692 249° West 478 550 43,000  Level Los Angeles Center
Wed 03:42:11 AM 35.7506 -113.5494 249° West 476 548 43,000  Level Los Angeles Center
Wed 03:43:11 AM 35.7036 -113.7000 249° West 475 547 43,000  Level Los Angeles Center
Wed 03:44:11 AM 35.6567 -113.8506 249° West 477 549 43,000  Level Los Angeles Center
Wed 03:45:12 AM 35.6097 -114.0011 249° West 475 547 43,000  Level Los Angeles Center
Wed 03:46:12 AM 35.5608 -114.1514 248° West 477 549 43,000  Level Los Angeles Center
Wed 03:47:12 AM 35.5133 -114.2986 248° West 477 549 43,000  Level Los Angeles Center
Wed 03:48:12 AM 35.4644 -114.4511 249° West 479 551 43,000  Level Los Angeles Center
Wed 03:49:13 AM 35.4175 -114.6003 249° West 473 544 43,000  Level Los Angeles Center
Wed 03:50:13 AM 35.3672 -114.7531 248° West 479 551 43,000  Level Los Angeles Center
Wed 03:51:13 AM 35.3181 -114.9033 248° West 477 549 43,000  Level Los Angeles Center
Wed 03:52:13 AM 35.2703 -115.0525 249° West 472 543 43,000  Level Los Angeles Center
Wed 03:53:14 AM 35.2206 -115.2019 248° West 471 542 43,000 -397 Level Los Angeles Center
Wed 03:54:14 AM 35.1694 -115.3603 248° West 474 545 42,200 -1,600 Descending Los Angeles Center
Wed 03:55:14 AM 35.1208 -115.5044 248° West 464 534 39,800 -2,400 Descending Los Angeles Center
Wed 03:56:14 AM 35.0744 -115.6444 248° West 449 517 37,400 -2,380 Descending Los Angeles Center
Wed 03:57:15 AM 35.0272 -115.7864 248° West 452 520 35,000 -2,281 Descending Los Angeles Center
Wed 03:58:15 AM 34.9792 -115.9292 248° West 454 522 32,800 -2,000 Descending Los Angeles Center
Wed 03:59:15 AM 34.9308 -116.0711 247° West 454 522 31,000 -1,800 Descending Los Angeles Center
Wed 04:00:15 AM 34.8817 -116.2153 247° West 458 527 29,200 -1,785 Descending Los Angeles Center
Wed 04:01:16 AM 34.8403 -116.3700 252° West 473 544 27,400 -1,636 Descending Los Angeles Center
Wed 04:02:16 AM 34.8242 -116.5322 263° West 481 554 25,900 -1,450 Descending Los Angeles Center
Wed 04:03:16 AM 34.8036 -116.6939 261° West 483 556 24,500 -1,350 Descending Los Angeles Center
Wed 04:04:16 AM 34.7856 -116.8397 261° West 447 514 23,200 -1,339 Descending Los Angeles Center
Wed 04:05:17 AM 34.7678 -116.9858 262° West 436 502 21,800 -1,388 Descending Los Angeles Center
Wed 04:06:17 AM 34.7481 -117.1400 261° West 452 520 20,400 -1,350 Descending Los Angeles Center
Wed 04:07:17 AM 34.7281 -117.2933 261° West 457 526 19,100 -1,350 Descending Los Angeles Center
Wed 04:08:17 AM 34.7072 -117.4444 261° West 452 520 17,700 -1,500 Descending Los Angeles Center
Wed 04:09:17 AM 34.6842 -117.5928 259° West 446 513 16,100 -1,537 Descending Los Angeles Center
Wed 04:10:18 AM 34.6617 -117.7394 259° West 441 507 14,600 -1,537 Descending Los Angeles Center
Wed 04:11:18 AM 34.6400 -117.8844 260° West 436 502 13,000 -1,500 Descending Los Angeles Center
Wed 04:12:18 AM 34.6208 -118.0128 260° West 390 449 11,600 -1,250 Descending Los Angeles Center
Wed 04:13:18 AM 34.6042 -118.1178 259° West 322 371 10,500 -1,000 Descending Los Angeles Center
Wed 04:14:18 AM 34.5894 -118.2072 259° West 304 350 9,600 -942 Descending Los Angeles Center
Wed 04:15:19 AM 34.5750 -118.2994 259° West 284 327 8,600 -793 Descending Los Angeles Center
Wed 04:16:19 AM 34.5619 -118.3786 259° West 294 338 8,000 -450 Descending Los Angeles Center
Wed 04:17:19 AM 34.5247 -118.4800 246° West 284 327 7,700 -900 Descending Los Angeles Center
Wed 04:18:19 AM 34.4556 -118.5142 202° Southwest 278 320 6,200 -1,300 Descending Los Angeles Center
Wed 04:19:19 AM 34.3861 -118.5103 177° South 247 284 5,100 -1,250 Descending Los Angeles Center
Wed 04:20:19 AM 34.3253 -118.5008 173° South 231 266 3,700 -1,339 Descending Los Angeles Center
Wed 04:21:20 AM 34.2739 -118.4994 179° South 208 239 2,400 -1,140 Descending Los Angeles Center
Wed 04:22:20 AM 34.2397 -118.4936 172° South 155 178 1,400 -800 Descending Los Angeles Center
Wed 04:23:20 AM 34.1981 -118.4886 174° South 140 161 800 -600 Descending Los Angeles Center
Wed 04:25:00 AM 34.2000 -118.4833 North  Level FlightAware Approximate

Login

Don't have an account? Register now (free) for customized features, flight alerts, and more!